Time;durP1;ratioP1;P1;durP2;ratioP2;P2;SDS_P1;SDS_P2;PMS_P1;PMS_P2;Temp;Humidity;BMP_temperature;BMP_pressure;BME280_temperature;BME280_humidity;BME280_pressure;Samples;Min_cycle;Max_cycle;Signal;HPM_P1;HPM_P2
2023/01/03 00:01:17;;;;;;;25.20;12.05;;;;;;;;;;5033000;28;20033;-61
2023/01/03 00:03:44;;;;;;;19.65;11.68;;;;;;;;;;5032568;28;20052;-61
2023/01/03 00:06:17;;;;;;;18.90;12.48;;;;;;;;;;5031374;28;20038;-61
2023/01/03 00:08:43;;;;;;;16.08;8.25;;;;;;;;;;5032941;28;20510;-61
2023/01/03 00:11:16;;;;;;;16.20;8.10;;;;;;;;;;5040953;28;20036;-61
2023/01/03 00:13:42;;;;;;;16.80;9.43;;;;;;;;;;5052388;28;20047;-61
2023/01/03 00:16:18;;;;;;;12.43;7.60;;;;;;;;;;5052629;28;20132;-61
2023/01/03 00:18:44;;;;;;;19.35;7.47;;;;;;;;;;5052467;28;20116;-61
2023/01/03 00:21:10;;;;;;;11.85;7.32;;;;;;;;;;5051989;28;20436;-61
2023/01/03 00:23:36;;;;;;;14.23;7.40;;;;;;;;;;5052252;28;20087;-61
2023/01/03 00:26:13;;;;;;;18.20;8.20;;;;;;;;;;5043412;28;20068;-61
2023/01/03 00:28:39;;;;;;;17.77;7.70;;;;;;;;;;5031332;28;20431;-61
2023/01/03 00:31:06;;;;;;;17.27;7.28;;;;;;;;;;5032207;28;20041;-61
2023/01/03 00:33:32;;;;;;;16.60;8.13;;;;;;;;;;5031955;28;20037;-61
2023/01/03 00:36:05;;;;;;;12.60;7.57;;;;;;;;;;5032194;28;20084;-61
2023/01/03 00:38:31;;;;;;;17.65;7.63;;;;;;;;;;5032379;28;20029;-61
2023/01/03 00:41:04;;;;;;;14.27;7.95;;;;;;;;;;5031571;28;20041;-61
2023/01/03 00:43:31;;;;;;;11.85;7.93;;;;;;;;;;5032129;28;20365;-61
2023/01/03 00:45:57;;;;;;;15.80;7.22;;;;;;;;;;5032172;28;20037;-61
2023/01/03 00:48:23;;;;;;;14.75;7.60;;;;;;;;;;5031846;28;20468;-61
2023/01/03 00:50:49;;;;;;;20.25;7.75;;;;;;;;;;5031768;28;20049;-61
2023/01/03 00:53:15;;;;;;;15.63;7.40;;;;;;;;;;5031936;28;20037;-61
2023/01/03 00:55:41;;;;;;;14.85;7.97;;;;;;;;;;5031168;28;20048;-61
2023/01/03 00:58:07;;;;;;;17.70;7.65;;;;;;;;;;5031226;28;20037;-61
2023/01/03 01:00:33;;;;;;;18.15;7.45;;;;;;;;;;5031893;28;20460;-61
2023/01/03 01:02:59;;;;;;;14.55;7.70;;;;;;;;;;5030947;28;20072;-61
2023/01/03 01:05:25;;;;;;;13.02;7.68;;;;;;;;;;5031888;28;20430;-61
2023/01/03 01:07:51;;;;;;;18.55;8.00;;;;;;;;;;5031713;28;20835;-61
2023/01/03 01:10:19;;;;;;;20.48;6.82;;;;;;;;;;5032878;28;20787;-61
2023/01/03 01:12:45;;;;;;;16.70;7.55;;;;;;;;;;5051230;28;20044;-61
2023/01/03 01:15:11;;;;;;;16.05;8.13;;;;;;;;;;5051560;28;20045;-61
2023/01/03 01:17:38;;;;;;;15.77;8.05;;;;;;;;;;5050963;28;20037;-61
2023/01/03 01:20:04;;;;;;;16.63;7.90;;;;;;;;;;5051180;28;20502;-61
2023/01/03 01:22:30;;;;;;;19.08;8.15;;;;;;;;;;5051044;28;20041;-61
2023/01/03 01:24:56;;;;;;;13.25;7.32;;;;;;;;;;5050778;28;20047;-61
2023/01/03 01:27:22;;;;;;;16.55;7.53;;;;;;;;;;5031125;28;20073;-61
2023/01/03 01:29:48;;;;;;;17.88;8.15;;;;;;;;;;5031345;28;20388;-61
2023/01/03 01:32:14;;;;;;;17.85;8.43;;;;;;;;;;5030435;28;20045;-61
2023/01/03 01:34:41;;;;;;;14.13;9.07;;;;;;;;;;5031279;28;20048;-61
2023/01/03 01:37:07;;;;;;;20.65;9.32;;;;;;;;;;5031044;28;20602;-61
2023/01/03 01:39:33;;;;;;;20.80;8.73;;;;;;;;;;5030927;28;20113;-61
2023/01/03 01:44:52;;;;;;;16.15;8.48;;;;;;;;;;5031197;28;20666;-61
2023/01/03 01:47:31;;;;;;;16.08;8.75;;;;;;;;;;5030472;28;20069;-61
2023/01/03 01:50:04;;;;;;;19.13;9.10;;;;;;;;;;5031072;28;20049;-61
2023/01/03 01:52:31;;;;;;;24.38;9.10;;;;;;;;;;5030561;28;20045;-61
2023/01/03 01:54:58;;;;;;;19.52;8.95;;;;;;;;;;5030492;28;20037;-61
2023/01/03 01:57:25;;;;;;;19.45;9.50;;;;;;;;;;5030696;28;20060;-61
2023/01/03 01:59:51;;;;;;;18.60;9.30;;;;;;;;;;5030682;28;20133;-61
2023/01/03 02:02:19;;;;;;;17.10;9.63;;;;;;;;;;5030159;28;20041;-61
2023/01/03 02:04:47;;;;;;;19.48;9.55;;;;;;;;;;5029736;28;20075;-61
2023/01/03 02:07:13;;;;;;;17.10;9.65;;;;;;;;;;5030564;28;20384;-61
2023/01/03 02:09:39;;;;;;;18.08;10.10;;;;;;;;;;5029666;28;20045;-61
2023/01/03 02:15:22;;;;;;;20.27;11.40;;;;;;;;;;5039794;28;20053;-61
2023/01/03 02:18:07;;;;;;;17.85;9.43;;;;;;;;;;5050244;28;20045;-61
2023/01/03 02:20:45;;;;;;;22.13;9.68;;;;;;;;;;5050442;28;20447;-61
2023/01/03 02:23:19;;;;;;;20.85;10.23;;;;;;;;;;5050163;28;20102;-61
2023/01/03 02:26:03;;;;;;;25.60;11.65;;;;;;;;;;5044282;28;20044;-61
2023/01/03 02:28:30;;;;;;;23.52;10.07;;;;;;;;;;5030368;28;20053;-61
2023/01/03 02:31:08;;;;;;;20.25;10.88;;;;;;;;;;5029927;28;20060;-61
2023/01/03 02:33:41;;;;;;;21.45;10.82;;;;;;;;;;5030314;28;20045;-61
2023/01/03 02:36:26;;;;;;;20.98;11.43;;;;;;;;;;5030500;28;20046;-61
2023/01/03 02:39:04;;;;;;;21.58;11.05;;;;;;;;;;5030029;28;20120;-61
2023/01/03 02:41:35;;;;;;;20.77;10.52;;;;;;;;;;5030521;28;20099;-61
2023/01/03 02:44:06;;;;;;;23.85;11.25;;;;;;;;;;5030346;28;20038;-61
2023/01/03 02:46:51;;;;;;;21.50;11.77;;;;;;;;;;5030087;28;20033;-61
2023/01/03 02:49:17;;;;;;;20.38;10.73;;;;;;;;;;5028938;28;20048;-61
2023/01/03 02:52:03;;;;;;;23.30;11.88;;;;;;;;;;5030467;28;20029;-61
2023/01/03 02:54:33;;;;;;;25.42;11.93;;;;;;;;;;5029853;28;20124;-61
2023/01/03 02:57:02;;;;;;;28.00;12.25;;;;;;;;;;5030311;28;20365;-61
2023/01/03 02:59:47;;;;;;;21.85;11.82;;;;;;;;;;5028982;28;20056;-61
2023/01/03 03:02:14;;;;;;;28.13;12.88;;;;;;;;;;5028565;28;20033;-61
2023/01/03 03:04:42;;;;;;;23.30;12.48;;;;;;;;;;5030047;28;20049;-61
2023/01/03 03:07:11;;;;;;;25.77;11.68;;;;;;;;;;5030317;28;20084;-61
2023/01/03 03:13:11;;;;;;;26.85;12.82;;;;;;;;;;5029631;28;20037;-61
2023/01/03 03:15:10;;;;;;;28.58;13.45;;;;;;;;;;5049115;28;20061;-61
2023/01/03 03:17:38;;;;;;;26.40;14.40;;;;;;;;;;5049867;28;20692;-61
2023/01/03 03:25:47;;;;;;;31.92;15.20;;;;;;;;;;5047402;28;20049;-61
2023/01/03 03:28:33;;;;;;;34.33;15.95;;;;;;;;;;5033452;28;20049;-61
2023/01/03 03:31:21;;;;;;;34.03;16.45;;;;;;;;;;5033153;28;20041;-61
2023/01/03 03:33:58;;;;;;;31.27;16.85;;;;;;;;;;5023538;28;20053;-61
2023/01/03 03:36:32;;;;;;;39.17;16.60;;;;;;;;;;5033147;28;20048;-61
2023/01/03 03:38:59;;;;;;;33.33;16.80;;;;;;;;;;5033006;28;20095;-61
2023/01/03 03:47:09;;;;;;;31.73;16.40;;;;;;;;;;5033039;28;20275;-61
2023/01/03 03:49:39;;;;;;;31.67;17.20;;;;;;;;;;5033043;28;20033;-61
2023/01/03 03:52:19;;;;;;;33.15;16.98;;;;;;;;;;5032651;28;20060;-61
2023/01/03 03:54:54;;;;;;;35.25;16.70;;;;;;;;;;5032806;28;20100;-61
2023/01/03 03:57:26;;;;;;;29.73;16.52;;;;;;;;;;5033017;28;20043;-61
2023/01/03 03:59:56;;;;;;;33.42;16.20;;;;;;;;;;5032744;28;20037;-61
2023/01/03 04:02:22;;;;;;;33.00;16.42;;;;;;;;;;5032492;28;20083;-61
2023/01/03 04:04:52;;;;;;;31.67;16.38;;;;;;;;;;5032947;28;20626;-61
2023/01/03 04:07:18;;;;;;;32.67;17.15;;;;;;;;;;5032395;28;20057;-61
2023/01/03 04:09:44;;;;;;;28.77;15.85;;;;;;;;;;5032805;28;20094;-61
2023/01/03 04:12:10;;;;;;;29.88;16.80;;;;;;;;;;5049407;28;20045;-61
2023/01/03 04:14:36;;;;;;;28.25;16.38;;;;;;;;;;5052249;28;20056;-61
2023/01/03 04:17:02;;;;;;;30.30;15.10;;;;;;;;;;5052611;28;20037;-61
2023/01/03 04:19:28;;;;;;;31.77;16.05;;;;;;;;;;5052338;28;20483;-61
2023/01/03 04:21:54;;;;;;;28.63;15.48;;;;;;;;;;5052011;28;20049;-61
2023/01/03 04:24:21;;;;;;;33.00;16.45;;;;;;;;;;5052271;28;20033;-61
2023/01/03 04:26:47;;;;;;;29.85;15.30;;;;;;;;;;5037648;28;20133;-61
2023/01/03 04:29:13;;;;;;;35.35;16.42;;;;;;;;;;5032138;28;20041;-61
2023/01/03 04:31:39;;;;;;;28.90;15.80;;;;;;;;;;5032402;28;20083;-61
2023/01/03 04:34:05;;;;;;;29.33;15.52;;;;;;;;;;5032185;28;20045;-61
2023/01/03 04:36:31;;;;;;;34.90;17.80;;;;;;;;;;5032116;28;20038;-61
2023/01/03 04:38:57;;;;;;;31.75;16.63;;;;;;;;;;5031952;28;20034;-61
2023/01/03 04:41:23;;;;;;;30.08;16.13;;;;;;;;;;5032048;28;20056;-61
2023/01/03 04:44:02;;;;;;;31.30;16.20;;;;;;;;;;5031705;28;20425;-61
2023/01/03 04:46:35;;;;;;;31.20;15.65;;;;;;;;;;5032003;28;20471;-61
2023/01/03 04:49:01;;;;;;;33.20;16.40;;;;;;;;;;5031991;28;20034;-61
2023/01/03 04:51:28;;;;;;;28.83;15.32;;;;;;;;;;5031422;28;20036;-61
2023/01/03 04:53:54;;;;;;;32.63;16.70;;;;;;;;;;5031666;28;20088;-61
2023/01/03 04:56:28;;;;;;;34.40;17.20;;;;;;;;;;5030763;28;20041;-61
2023/01/03 04:58:54;;;;;;;32.10;16.17;;;;;;;;;;5031428;28;20033;-61
2023/01/03 05:01:20;;;;;;;35.78;16.98;;;;;;;;;;5031952;28;20128;-61
2023/01/03 05:03:46;;;;;;;32.00;16.00;;;;;;;;;;5031475;28;20092;-61
2023/01/03 05:06:12;;;;;;;35.63;16.02;;;;;;;;;;5031557;28;20043;-61
2023/01/03 05:08:39;;;;;;;28.58;15.38;;;;;;;;;;5030352;28;20415;-61
2023/01/03 05:11:05;;;;;;;29.20;14.30;;;;;;;;;;5039472;28;20044;-61
2023/01/03 05:13:32;;;;;;;31.10;15.93;;;;;;;;;;5050743;28;20041;-61
2023/01/03 05:16:09;;;;;;;30.55;15.80;;;;;;;;;;5051401;28;20045;-61
2023/01/03 05:18:35;;;;;;;30.80;15.95;;;;;;;;;;5051171;28;20048;-61
2023/01/03 05:26:40;;;;;;;29.23;15.77;;;;;;;;;;5037640;28;20045;-62
2023/01/03 05:29:07;;;;;;;35.38;15.75;;;;;;;;;;5030753;28;20038;-61
2023/01/03 05:31:33;;;;;;;35.50;16.08;;;;;;;;;;5031442;28;20120;-61
2023/01/03 05:34:00;;;;;;;32.40;16.40;;;;;;;;;;5031006;28;20048;-61
2023/01/03 05:36:26;;;;;;;37.15;16.70;;;;;;;;;;5030939;28;20037;-61
2023/01/03 05:38:52;;;;;;;32.75;16.25;;;;;;;;;;5031253;28;20048;-61
2023/01/03 05:41:58;;;;;;;29.30;16.40;;;;;;;;;;5031579;28;20038;-61
2023/01/03 05:44:04;;;;;;;33.03;17.67;;;;;;;;;;5030282;28;20052;-61
2023/01/03 05:46:30;;;;;;;33.10;17.80;;;;;;;;;;5031312;28;20069;-61
2023/01/03 05:48:56;;;;;;;30.88;17.00;;;;;;;;;;5031517;28;20084;-61
2023/01/03 05:51:22;;;;;;;29.42;16.00;;;;;;;;;;5030922;28;20041;-61
2023/01/03 05:53:48;;;;;;;36.15;17.70;;;;;;;;;;5031065;28;20480;-61
2023/01/03 05:56:15;;;;;;;31.58;16.65;;;;;;;;;;5030967;28;20095;-61
2023/01/03 05:58:45;;;;;;;32.35;17.27;;;;;;;;;;5030867;28;20037;-61
2023/01/03 06:01:12;;;;;;;31.70;17.73;;;;;;;;;;5029784;28;20041;-61
2023/01/03 06:03:38;;;;;;;31.40;17.40;;;;;;;;;;5031294;28;20119;-61
2023/01/03 06:06:05;;;;;;;27.88;16.52;;;;;;;;;;5030737;28;20047;-61
2023/01/03 06:08:31;;;;;;;31.42;17.83;;;;;;;;;;5031231;28;20049;-61
2023/01/03 06:10:57;;;;;;;30.40;17.42;;;;;;;;;;5037525;28;20124;-61
2023/01/03 06:13:23;;;;;;;31.60;17.15;;;;;;;;;;5050499;28;20072;-61
2023/01/03 06:18:35;;;;;;;29.35;17.85;;;;;;;;;;5049565;28;20041;-61
2023/01/03 06:21:05;;;;;;;29.35;17.20;;;;;;;;;;5050091;28;20060;-61
2023/01/03 06:23:31;;;;;;;34.42;18.45;;;;;;;;;;5050859;28;20071;-61
2023/01/03 06:25:57;;;;;;;29.13;18.15;;;;;;;;;;5042888;28;20570;-61
2023/01/03 06:28:23;;;;;;;29.60;16.58;;;;;;;;;;5030663;28;20414;-61
2023/01/03 06:30:49;;;;;;;31.15;15.90;;;;;;;;;;5030447;28;20045;-61
2023/01/03 06:33:15;;;;;;;33.97;18.17;;;;;;;;;;5030656;28;20037;-61
2023/01/03 06:35:41;;;;;;;31.05;17.48;;;;;;;;;;5030324;28;20037;-61
2023/01/03 06:38:07;;;;;;;30.75;18.13;;;;;;;;;;5031055;28;20037;-61
2023/01/03 06:40:33;;;;;;;28.10;17.00;;;;;;;;;;5030460;28;20167;-61
2023/01/03 06:42:59;;;;;;;29.45;17.58;;;;;;;;;;5030297;28;20034;-61
2023/01/03 06:53:40;;;;;;;31.75;17.90;;;;;;;;;;5030818;28;20475;-61
2023/01/03 06:56:06;;;;;;;36.50;20.20;;;;;;;;;;5032158;28;20116;-61
2023/01/03 06:58:33;;;;;;;32.75;19.15;;;;;;;;;;5034340;28;20038;-61
2023/01/03 07:01:03;;;;;;;33.83;19.35;;;;;;;;;;5032992;28;20116;-61
2023/01/03 07:03:30;;;;;;;32.15;18.83;;;;;;;;;;5032736;28;20041;-61
2023/01/03 07:05:56;;;;;;;35.70;19.98;;;;;;;;;;5033604;28;20136;-61
2023/01/03 07:08:22;;;;;;;36.00;20.33;;;;;;;;;;5034340;28;20443;-61
2023/01/03 07:10:48;;;;;;;36.90;20.60;;;;;;;;;;5039932;28;20103;-61
2023/01/03 07:15:59;;;;;;;35.13;21.02;;;;;;;;;;5054088;28;20045;-61
2023/01/03 07:18:25;;;;;;;32.25;18.77;;;;;;;;;;5054043;28;20568;-61
2023/01/03 07:20:51;;;;;;;31.45;20.73;;;;;;;;;;5053248;28;20423;-61
2023/01/03 07:23:17;;;;;;;33.40;19.85;;;;;;;;;;5048206;28;20083;-61
2023/01/03 07:25:43;;;;;;;33.45;19.70;;;;;;;;;;5028201;28;20041;-61
2023/01/03 07:28:13;;;;;;;36.78;20.55;;;;;;;;;;5013445;28;20053;-61
2023/01/03 07:30:40;;;;;;;33.53;19.33;;;;;;;;;;5014228;28;20045;-61
2023/01/03 07:33:08;;;;;;;31.90;19.67;;;;;;;;;;5014116;28;20041;-61
2023/01/03 07:35:34;;;;;;;26.58;15.60;;;;;;;;;;5013913;28;20085;-61
2023/01/03 07:38:00;;;;;;;22.58;13.32;;;;;;;;;;5013753;28;20042;-61
2023/01/03 07:40:27;;;;;;;80.32;15.90;;;;;;;;;;5013776;28;20053;-61
2023/01/03 07:45:44;;;;;;;38.90;14.02;;;;;;;;;;5014166;28;20507;-61
2023/01/03 07:48:10;;;;;;;20.17;13.23;;;;;;;;;;5013963;28;20072;-61
2023/01/03 07:50:37;;;;;;;27.63;13.50;;;;;;;;;;5012203;28;20183;-61
2023/01/03 07:53:03;;;;;;;21.88;13.38;;;;;;;;;;5013653;28;20463;-61
2023/01/03 07:55:29;;;;;;;26.02;12.45;;;;;;;;;;5030945;28;20033;-61
2023/01/03 07:57:55;;;;;;;23.80;12.60;;;;;;;;;;5032704;28;20461;-61
2023/01/03 08:00:21;;;;;;;27.38;12.80;;;;;;;;;;5031704;28;20037;-61
2023/01/03 08:02:48;;;;;;;42.88;13.95;;;;;;;;;;5032760;28;20056;-61
2023/01/03 08:05:14;;;;;;;28.35;13.80;;;;;;;;;;5031903;28;20045;-61
2023/01/03 08:07:40;;;;;;;34.10;14.65;;;;;;;;;;5027952;28;20087;-61
2023/01/03 08:15:38;;;;;;;33.20;16.00;;;;;;;;;;5024971;28;20054;-61
2023/01/03 08:18:04;;;;;;;29.92;15.23;;;;;;;;;;5032890;28;20037;-61
2023/01/03 08:20:30;;;;;;;45.30;17.48;;;;;;;;;;5031949;28;20092;-61
2023/01/03 08:22:59;;;;;;;34.58;15.45;;;;;;;;;;5032718;28;20041;-61
2023/01/03 08:25:25;;;;;;;35.10;15.48;;;;;;;;;;5032737;28;20037;-61
2023/01/03 08:27:51;;;;;;;87.05;18.60;;;;;;;;;;5032147;28;20060;-61
2023/01/03 08:30:17;;;;;;;43.15;18.13;;;;;;;;;;5031931;28;20500;-61
2023/01/03 08:32:43;;;;;;;38.33;17.50;;;;;;;;;;5032759;28;20121;-61
2023/01/03 08:35:10;;;;;;;52.42;18.05;;;;;;;;;;5024097;28;20564;-61
2023/01/03 08:37:36;;;;;;;74.20;18.77;;;;;;;;;;5012881;28;20087;-61
2023/01/03 08:40:03;;;;;;;67.75;20.83;;;;;;;;;;5012193;28;20468;-61
2023/01/03 08:42:31;;;;;;;47.20;21.02;;;;;;;;;;5013622;28;20120;-61
2023/01/03 08:44:59;;;;;;;47.60;18.55;;;;;;;;;;5030429;28;20049;-61
2023/01/03 08:47:26;;;;;;;78.70;20.50;;;;;;;;;;5028464;28;20037;-61
2023/01/03 08:49:52;;;;;;;51.15;19.58;;;;;;;;;;5031485;28;20034;-61
2023/01/03 08:52:18;;;;;;;40.35;19.20;;;;;;;;;;5031537;28;20045;-61
2023/01/03 08:54:44;;;;;;;36.92;19.92;;;;;;;;;;5031555;28;20045;-61
2023/01/03 08:57:10;;;;;;;54.53;21.25;;;;;;;;;;5031309;28;20038;-61
2023/01/03 08:59:36;;;;;;;40.38;20.70;;;;;;;;;;5031277;28;20045;-61
2023/01/03 09:02:02;;;;;;;47.25;21.25;;;;;;;;;;5031588;28;20049;-61
2023/01/03 09:04:28;;;;;;;49.13;22.38;;;;;;;;;;5031425;28;20431;-61
2023/01/03 09:06:54;;;;;;;51.08;23.52;;;;;;;;;;5031451;28;20042;-61
2023/01/03 09:09:20;;;;;;;43.03;22.40;;;;;;;;;;5031261;28;20049;-62
2023/01/03 09:11:46;;;;;;;46.60;22.25;;;;;;;;;;5028354;28;20041;-62
2023/01/03 09:14:12;;;;;;;52.80;23.65;;;;;;;;;;5029868;28;20037;-62
2023/01/03 09:16:38;;;;;;;52.40;24.50;;;;;;;;;;5027921;28;20498;-62
2023/01/03 09:19:04;;;;;;;53.83;25.65;;;;;;;;;;5030044;28;20044;-62
2023/01/03 09:21:31;;;;;;;49.92;24.45;;;;;;;;;;5031334;28;20052;-62
2023/01/03 09:23:57;;;;;;;51.95;24.80;;;;;;;;;;5026998;28;20415;-62
2023/01/03 09:26:24;;;;;;;62.05;27.55;;;;;;;;;;5022762;28;20095;-62
2023/01/03 09:28:50;;;;;;;57.83;27.42;;;;;;;;;;5031564;28;20654;-62
2023/01/03 09:31:16;;;;;;;66.15;29.15;;;;;;;;;;5023004;28;20177;-62
2023/01/03 09:33:42;;;;;;;62.80;28.95;;;;;;;;;;5011349;28;20042;-62
2023/01/03 09:36:08;;;;;;;60.20;27.42;;;;;;;;;;5023628;28;20491;-62
2023/01/03 09:38:34;;;;;;;59.58;28.42;;;;;;;;;;5031035;28;20040;-62
2023/01/03 09:41:14;;;;;;;62.50;29.40;;;;;;;;;;5030494;28;20611;-63
2023/01/03 09:43:42;;;;;;;62.38;28.88;;;;;;;;;;5029181;28;20041;-62
2023/01/03 09:46:17;;;;;;;63.92;30.00;;;;;;;;;;5029101;28;20168;-62
2023/01/03 09:48:43;;;;;;;63.42;28.80;;;;;;;;;;5030634;28;20045;-62
2023/01/03 10:05:35;;;;;;;63.65;29.77;;;;;;;;;;5011683;28;20439;-62
2023/01/03 10:08:10;;;;;;;64.78;29.98;;;;;;;;;;5022375;28;20037;-62
2023/01/03 10:11:00;;;;;;;62.00;28.92;;;;;;;;;;5029948;28;20041;-62
2023/01/03 10:13:59;;;;;;;68.68;31.15;;;;;;;;;;5009891;28;20498;-62
2023/01/03 10:16:37;;;;;;;67.25;30.25;;;;;;;;;;4998647;28;20076;-62
2023/01/03 10:19:21;;;;;;;72.85;32.08;;;;;;;;;;5013638;28;20480;-62
2023/01/03 10:22:06;;;;;;;66.55;31.77;;;;;;;;;;5030400;28;20049;-62
2023/01/03 10:24:36;;;;;;;69.63;30.70;;;;;;;;;;5025888;28;20100;-62
2023/01/03 10:27:08;;;;;;;77.85;34.20;;;;;;;;;;5027488;28;20554;-62
2023/01/03 10:29:34;;;;;;;77.32;37.05;;;;;;;;;;5032646;28;20045;-62
2023/01/03 10:32:03;;;;;;;82.18;36.80;;;;;;;;;;5033837;28;20045;-62
2023/01/03 10:34:29;;;;;;;78.30;34.28;;;;;;;;;;5034216;28;20094;-62
2023/01/03 10:36:55;;;;;;;78.32;34.97;;;;;;;;;;5034758;28;20041;-62
2023/01/03 10:39:30;;;;;;;75.43;34.80;;;;;;;;;;5034221;28;20516;-62
2023/01/03 10:41:57;;;;;;;70.97;33.72;;;;;;;;;;5033512;28;20290;-62
2023/01/03 10:44:31;;;;;;;77.13;35.58;;;;;;;;;;5034429;28;20091;-62
2023/01/03 10:47:10;;;;;;;74.15;34.15;;;;;;;;;;5034318;28;20037;-62
2023/01/03 10:49:36;;;;;;;76.47;33.25;;;;;;;;;;5034624;28;20041;-62
2023/01/03 10:52:09;;;;;;;81.78;34.38;;;;;;;;;;5033013;28;20048;-62
2023/01/03 10:54:38;;;;;;;71.68;33.88;;;;;;;;;;5033983;28;20042;-62
2023/01/03 10:57:05;;;;;;;71.00;31.92;;;;;;;;;;5034136;28;20049;-62
2023/01/03 10:59:31;;;;;;;68.45;30.55;;;;;;;;;;5034065;28;20037;-62
2023/01/03 11:02:02;;;;;;;71.30;32.90;;;;;;;;;;5033727;28;20041;-62
2023/01/03 11:04:29;;;;;;;66.75;31.73;;;;;;;;;;5033319;28;20586;-62
2023/01/03 11:07:03;;;;;;;63.90;30.88;;;;;;;;;;5034005;28;20041;-62
2023/01/03 11:09:41;;;;;;;63.03;30.45;;;;;;;;;;5033118;28;20044;-62
2023/01/03 11:12:12;;;;;;;57.42;28.60;;;;;;;;;;5028132;28;20046;-62
2023/01/03 11:14:39;;;;;;;58.58;29.48;;;;;;;;;;5013820;28;20046;-63
2023/01/03 11:17:05;;;;;;;56.97;27.25;;;;;;;;;;5031298;28;20084;-63
2023/01/03 11:19:32;;;;;;;59.45;27.98;;;;;;;;;;5033163;28;20053;-63
2023/01/03 11:22:13;;;;;;;48.55;26.38;;;;;;;;;;5033938;28;20150;-63
2023/01/03 11:25:06;;;;;;;49.67;26.35;;;;;;;;;;5033287;28;20091;-63
2023/01/03 11:27:35;;;;;;;57.30;27.42;;;;;;;;;;5019532;28;20116;-63
2023/01/03 11:30:01;;;;;;;51.25;26.33;;;;;;;;;;5033643;28;20081;-63
2023/01/03 11:32:27;;;;;;;57.95;26.73;;;;;;;;;;5033250;28;20634;-63
2023/01/03 11:35:10;;;;;;;48.53;24.20;;;;;;;;;;5032324;28;20124;-62
2023/01/03 11:37:56;;;;;;;45.15;24.83;;;;;;;;;;5033957;28;20554;-62
2023/01/03 11:40:58;;;;;;;43.30;23.75;;;;;;;;;;5031778;28;20646;-62
2023/01/03 11:43:44;;;;;;;40.05;22.27;;;;;;;;;;5008698;28;20038;-62
2023/01/03 11:46:10;;;;;;;47.33;22.85;;;;;;;;;;5023700;28;20065;-62
2023/01/03 11:48:48;;;;;;;40.67;21.08;;;;;;;;;;5033707;28;20468;-63
2023/01/03 11:51:24;;;;;;;43.38;22.60;;;;;;;;;;5033383;28;20465;-63
2023/01/03 11:54:01;;;;;;;40.97;21.80;;;;;;;;;;5031541;28;20495;-63
2023/01/03 11:56:33;;;;;;;45.22;21.52;;;;;;;;;;5033136;28;20152;-63
2023/01/03 11:58:59;;;;;;;35.95;22.00;;;;;;;;;;5033350;28;20072;-63
2023/01/03 12:01:45;;;;;;;41.50;21.35;;;;;;;;;;5032930;28;20077;-63
2023/01/03 12:04:23;;;;;;;37.45;21.05;;;;;;;;;;5032767;28;20053;-62
2023/01/03 12:06:49;;;;;;;34.97;21.58;;;;;;;;;;5031897;28;20500;-62
2023/01/03 12:09:18;;;;;;;39.17;20.67;;;;;;;;;;5032406;28;20470;-62
2023/01/03 12:11:57;;;;;;;45.47;20.80;;;;;;;;;;5033939;28;20034;-62
2023/01/03 12:15:02;;;;;;;39.03;22.02;;;;;;;;;;5016573;28;20179;-62
2023/01/03 12:17:46;;;;;;;45.03;20.77;;;;;;;;;;4970961;28;20057;-63
2023/01/03 12:20:15;;;;;;;41.63;20.05;;;;;;;;;;4970972;28;20424;-63
2023/01/03 12:22:42;;;;;;;37.20;19.95;;;;;;;;;;5008311;28;20049;-63
2023/01/03 12:25:26;;;;;;;49.97;22.33;;;;;;;;;;5032467;28;20045;-63
2023/01/03 12:28:05;;;;;;;39.75;20.77;;;;;;;;;;5032548;28;20041;-63
2023/01/03 12:30:34;;;;;;;37.75;19.83;;;;;;;;;;5031723;28;20037;-63
2023/01/03 12:33:06;;;;;;;47.22;21.95;;;;;;;;;;5027670;28;20056;-63
2023/01/03 12:35:46;;;;;;;44.45;20.48;;;;;;;;;;5032368;28;20081;-63
2023/01/03 12:38:12;;;;;;;49.20;21.23;;;;;;;;;;5032306;28;20050;-63
2023/01/03 12:40:44;;;;;;;42.60;21.65;;;;;;;;;;5032633;28;20049;-63
2023/01/03 12:43:23;;;;;;;43.53;19.85;;;;;;;;;;5031924;28;20040;-63
2023/01/03 12:46:16;;;;;;;36.95;19.15;;;;;;;;;;5030152;28;20460;-63
2023/01/03 12:48:51;;;;;;;34.42;18.63;;;;;;;;;;5029342;28;20053;-63
2023/01/03 12:51:19;;;;;;;34.42;18.20;;;;;;;;;;5032040;28;20060;-63
2023/01/03 12:53:51;;;;;;;35.75;18.42;;;;;;;;;;5032035;28;20033;-63
2023/01/03 12:56:36;;;;;;;38.80;19.10;;;;;;;;;;5031125;28;20056;-63
2023/01/03 12:59:10;;;;;;;33.33;18.17;;;;;;;;;;5030868;28;20056;-63
2023/01/03 13:01:36;;;;;;;36.75;17.35;;;;;;;;;;5012014;28;20187;-63
2023/01/03 13:04:06;;;;;;;35.35;19.50;;;;;;;;;;5018498;28;20037;-63
2023/01/03 13:06:34;;;;;;;41.85;18.73;;;;;;;;;;5031782;28;20044;-63
2023/01/03 13:09:06;;;;;;;36.90;19.20;;;;;;;;;;5031237;28;20044;-63
2023/01/03 13:11:34;;;;;;;41.72;19.33;;;;;;;;;;5038458;28;20156;-63
2023/01/03 13:14:05;;;;;;;38.03;18.48;;;;;;;;;;5011781;28;20045;-63
2023/01/03 13:16:31;;;;;;;49.13;20.33;;;;;;;;;;5021563;28;20053;-62
2023/01/03 13:19:17;;;;;;;43.30;20.73;;;;;;;;;;5030634;28;20159;-62
2023/01/03 13:21:58;;;;;;;42.20;18.95;;;;;;;;;;5029045;28;20046;-62
2023/01/03 13:24:44;;;;;;;39.67;19.27;;;;;;;;;;5029377;28;20045;-62
2023/01/03 13:27:19;;;;;;;42.13;19.80;;;;;;;;;;5030954;28;20045;-62
2023/01/03 13:29:49;;;;;;;40.70;20.45;;;;;;;;;;5030942;28;20403;-62
2023/01/03 13:32:18;;;;;;;39.03;20.30;;;;;;;;;;5030733;28;20041;-62
2023/01/03 13:34:44;;;;;;;43.55;19.88;;;;;;;;;;5030815;28;20079;-62
2023/01/03 13:37:14;;;;;;;43.17;19.98;;;;;;;;;;5030731;28;20041;-62
2023/01/03 13:39:43;;;;;;;42.65;18.75;;;;;;;;;;5030820;28;20041;-62
2023/01/03 13:42:36;;;;;;;39.65;18.40;;;;;;;;;;5030672;28;20029;-62
2023/01/03 13:45:11;;;;;;;43.72;19.83;;;;;;;;;;5028859;28;20057;-62
2023/01/03 13:47:40;;;;;;;35.88;18.70;;;;;;;;;;5030472;28;20060;-62
2023/01/03 13:50:18;;;;;;;36.08;18.52;;;;;;;;;;5029911;28;20111;-62
2023/01/03 13:53:03;;;;;;;42.05;18.60;;;;;;;;;;5028475;28;20111;-62
2023/01/03 13:55:36;;;;;;;34.15;18.45;;;;;;;;;;5030120;28;20045;-63
2023/01/03 13:58:03;;;;;;;35.55;18.05;;;;;;;;;;5030511;28;20080;-63
2023/01/03 14:00:30;;;;;;;33.47;18.85;;;;;;;;;;5030180;28;20037;-63
2023/01/03 14:03:16;;;;;;;34.30;16.75;;;;;;;;;;5030648;28;20037;-63
2023/01/03 14:05:42;;;;;;;29.80;16.10;;;;;;;;;;5029668;28;20053;-63
2023/01/03 14:08:15;;;;;;;28.73;15.68;;;;;;;;;;5028987;28;20044;-63
2023/01/03 14:10:59;;;;;;;31.35;16.27;;;;;;;;;;5027583;28;20434;-63
2023/01/03 14:13:38;;;;;;;29.77;14.65;;;;;;;;;;5027730;28;20433;-63
2023/01/03 14:16:18;;;;;;;28.30;15.75;;;;;;;;;;5027367;28;20117;-63
2023/01/03 14:18:51;;;;;;;33.10;16.27;;;;;;;;;;5027874;28;20048;-63
2023/01/03 14:21:25;;;;;;;30.35;15.77;;;;;;;;;;5025957;28;20392;-63
2023/01/03 14:23:53;;;;;;;29.83;15.20;;;;;;;;;;5029172;28;20033;-63
2023/01/03 14:26:19;;;;;;;27.80;16.20;;;;;;;;;;5028693;28;20077;-63
2023/01/03 14:28:49;;;;;;;31.30;16.27;;;;;;;;;;5025582;28;20095;-63
2023/01/03 14:31:18;;;;;;;30.05;15.88;;;;;;;;;;5026458;28;20065;-63
2023/01/03 14:33:49;;;;;;;32.05;15.10;;;;;;;;;;5026501;28;20227;-63
2023/01/03 14:36:16;;;;;;;34.75;16.20;;;;;;;;;;5025776;28;20089;-63
2023/01/03 14:38:56;;;;;;;28.38;14.38;;;;;;;;;;5029480;28;20041;-63
2023/01/03 14:41:25;;;;;;;25.80;14.32;;;;;;;;;;5024336;28;20044;-63
2023/01/03 14:43:58;;;;;;;25.42;14.43;;;;;;;;;;5028248;28;20059;-63
2023/01/03 14:46:24;;;;;;;27.17;14.10;;;;;;;;;;5027984;28;20041;-63
2023/01/03 14:48:50;;;;;;;31.27;15.25;;;;;;;;;;5028812;28;20045;-63
2023/01/03 14:51:17;;;;;;;25.33;13.85;;;;;;;;;;5029725;28;20034;-63
2023/01/03 14:53:45;;;;;;;26.45;15.35;;;;;;;;;;5029909;28;20084;-63
2023/01/03 14:56:11;;;;;;;27.08;15.10;;;;;;;;;;5029369;28;20049;-63
2023/01/03 14:58:46;;;;;;;25.02;14.15;;;;;;;;;;5029868;28;20069;-63
2023/01/03 15:01:13;;;;;;;30.05;13.70;;;;;;;;;;5029832;28;20037;-63
2023/01/03 15:03:41;;;;;;;27.23;14.25;;;;;;;;;;5030006;28;20037;-63
2023/01/03 15:06:16;;;;;;;25.58;13.48;;;;;;;;;;5029567;28;20507;-63
2023/01/03 15:08:43;;;;;;;25.83;13.50;;;;;;;;;;5029641;28;20056;-63
2023/01/03 15:11:10;;;;;;;26.17;13.68;;;;;;;;;;5037965;28;20033;-63
2023/01/03 15:13:49;;;;;;;22.83;13.75;;;;;;;;;;5027328;28;20045;-63
2023/01/03 15:16:18;;;;;;;27.90;13.52;;;;;;;;;;5028618;28;20045;-63
2023/01/03 15:18:44;;;;;;;25.25;14.75;;;;;;;;;;5033161;28;20065;-63
2023/01/03 15:21:14;;;;;;;25.40;13.38;;;;;;;;;;5032432;28;20098;-63
2023/01/03 15:23:42;;;;;;;21.50;13.20;;;;;;;;;;5033501;28;20125;-63
2023/01/03 15:26:38;;;;;;;25.73;13.90;;;;;;;;;;5032300;28;20045;-63
2023/01/03 15:29:12;;;;;;;24.25;13.57;;;;;;;;;;4978980;28;20103;-63
2023/01/03 15:31:45;;;;;;;23.63;13.73;;;;;;;;;;5033346;28;20053;-63
2023/01/03 15:34:13;;;;;;;21.60;13.70;;;;;;;;;;5031984;28;20048;-63
2023/01/03 15:36:40;;;;;;;27.30;14.48;;;;;;;;;;5032993;28;20053;-63
2023/01/03 15:39:17;;;;;;;18.90;11.13;;;;;;;;;;5033359;28;20116;-63